YTR weather

CFB Trenton
Trenton, Ontario, Canada

Public forecast

Using degrees Celsius for public forecast. Weather courtesy of forecast.io.

Current aviation weather report (METAR) for CFB Trenton

Retrieved 2020/02/24 19:00 UTC (49 minutes ago):

CYTR 241900Z 21009KT 15SM SCT250 05/01 A2990 RMK CI4 SLP127

Aviation forecast (TAF) for CFB Trenton

Retrieved 2020/02/24 18:33 UTC (1 hour ago):

TAF CYTR 241730Z 2418/2518 21008KT P6SM SCT250 BECMG 2500/2502 VRB03KT FM250600 01005KT P6SM FEW010 BKN100 FM251300 03010KT P6SM FEW030 BKN080 RMK NXT FCST BY 250000Z